sensor_id;sensor_type;location;lat;lon;timestamp;P1;durP1;ratioP1;P2;durP2;ratioP2
20792;SDS011;10556;-33.662;151.094;2023-09-19T00:01:38;3.00;;;2.13;;
20792;SDS011;10556;-33.662;151.094;2023-09-19T00:06:39;2.97;;;1.98;;
20792;SDS011;10556;-33.662;151.094;2023-09-19T00:11:43;3.80;;;2.05;;
20792;SDS011;10556;-33.662;151.094;2023-09-19T00:16:44;2.72;;;2.17;;
20792;SDS011;10556;-33.662;151.094;2023-09-19T00:21:45;2.67;;;1.70;;
20792;SDS011;10556;-33.662;151.094;2023-09-19T00:26:48;3.20;;;2.00;;
20792;SDS011;10556;-33.662;151.094;2023-09-19T00:31:50;2.42;;;2.10;;
20792;SDS011;10556;-33.662;151.094;2023-09-19T00:36:51;2.67;;;2.33;;
20792;SDS011;10556;-33.662;151.094;2023-09-19T00:41:54;3.25;;;2.10;;
20792;SDS011;10556;-33.662;151.094;2023-09-19T00:46:55;2.63;;;1.73;;
20792;SDS011;10556;-33.662;151.094;2023-09-19T00:51:57;2.55;;;2.35;;
20792;SDS011;10556;-33.662;151.094;2023-09-19T00:57:00;3.35;;;1.70;;
20792;SDS011;10556;-33.662;151.094;2023-09-19T01:02:02;3.63;;;2.00;;
20792;SDS011;10556;-33.662;151.094;2023-09-19T01:07:03;6.57;;;1.73;;
20792;SDS011;10556;-33.662;151.094;2023-09-19T01:12:07;2.40;;;1.70;;
20792;SDS011;10556;-33.662;151.094;2023-09-19T01:17:09;2.42;;;1.80;;
20792;SDS011;10556;-33.662;151.094;2023-09-19T01:22:16;2.88;;;2.10;;
20792;SDS011;10556;-33.662;151.094;2023-09-19T01:27:33;3.13;;;2.13;;
20792;SDS011;10556;-33.662;151.094;2023-09-19T01:32:44;2.13;;;1.77;;
20792;SDS011;10556;-33.662;151.094;2023-09-19T01:37:48;2.88;;;1.92;;
20792;SDS011;10556;-33.662;151.094;2023-09-19T01:42:50;2.42;;;1.40;;
20792;SDS011;10556;-33.662;151.094;2023-09-19T01:47:59;5.22;;;2.00;;
20792;SDS011;10556;-33.662;151.094;2023-09-19T01:53:05;4.57;;;2.80;;
20792;SDS011;10556;-33.662;151.094;2023-09-19T01:58:08;2.88;;;1.90;;
20792;SDS011;10556;-33.662;151.094;2023-09-19T02:03:15;3.67;;;2.08;;
20792;SDS011;10556;-33.662;151.094;2023-09-19T02:08:17;2.58;;;2.35;;
20792;SDS011;10556;-33.662;151.094;2023-09-19T02:13:19;3.03;;;2.20;;
20792;SDS011;10556;-33.662;151.094;2023-09-19T02:18:23;2.30;;;1.75;;
20792;SDS011;10556;-33.662;151.094;2023-09-19T02:23:25;4.50;;;1.95;;
20792;SDS011;10556;-33.662;151.094;2023-09-19T02:28:26;2.60;;;2.40;;
20792;SDS011;10556;-33.662;151.094;2023-09-19T02:33:29;3.40;;;2.15;;
20792;SDS011;10556;-33.662;151.094;2023-09-19T02:38:30;2.55;;;2.30;;
20792;SDS011;10556;-33.662;151.094;2023-09-19T02:43:31;3.08;;;1.90;;
20792;SDS011;10556;-33.662;151.094;2023-09-19T02:48:35;2.85;;;1.85;;
20792;SDS011;10556;-33.662;151.094;2023-09-19T02:53:36;2.35;;;1.67;;
20792;SDS011;10556;-33.662;151.094;2023-09-19T02:58:37;2.90;;;2.08;;
20792;SDS011;10556;-33.662;151.094;2023-09-19T03:03:40;2.65;;;1.95;;
20792;SDS011;10556;-33.662;151.094;2023-09-19T03:08:41;3.67;;;2.35;;
20792;SDS011;10556;-33.662;151.094;2023-09-19T03:13:42;4.10;;;2.20;;
20792;SDS011;10556;-33.662;151.094;2023-09-19T03:18:45;3.08;;;2.20;;
20792;SDS011;10556;-33.662;151.094;2023-09-19T03:23:47;3.17;;;2.00;;
20792;SDS011;10556;-33.662;151.094;2023-09-19T03:28:48;2.40;;;1.90;;
20792;SDS011;10556;-33.662;151.094;2023-09-19T03:33:51;5.75;;;1.85;;
20792;SDS011;10556;-33.662;151.094;2023-09-19T03:38:52;3.20;;;2.10;;
20792;SDS011;10556;-33.662;151.094;2023-09-19T03:43:53;3.20;;;1.90;;
20792;SDS011;10556;-33.662;151.094;2023-09-19T03:48:57;2.50;;;1.92;;
20792;SDS011;10556;-33.662;151.094;2023-09-19T03:53:58;3.13;;;2.08;;
20792;SDS011;10556;-33.662;151.094;2023-09-19T03:58:59;2.78;;;1.90;;
20792;SDS011;10556;-33.662;151.094;2023-09-19T04:04:02;5.75;;;2.47;;
20792;SDS011;10556;-33.662;151.094;2023-09-19T04:09:04;4.25;;;2.47;;
20792;SDS011;10556;-33.662;151.094;2023-09-19T04:14:05;2.17;;;1.50;;
20792;SDS011;10556;-33.662;151.094;2023-09-19T04:19:08;1.98;;;1.80;;
20792;SDS011;10556;-33.662;151.094;2023-09-19T04:24:09;2.95;;;2.28;;
20792;SDS011;10556;-33.662;151.094;2023-09-19T04:29:11;4.45;;;2.30;;
20792;SDS011;10556;-33.662;151.094;2023-09-19T04:34:14;3.63;;;2.38;;
20792;SDS011;10556;-33.662;151.094;2023-09-19T04:39:15;2.60;;;2.05;;
20792;SDS011;10556;-33.662;151.094;2023-09-19T04:44:16;3.75;;;1.50;;
20792;SDS011;10556;-33.662;151.094;2023-09-19T04:49:19;3.80;;;2.35;;
20792;SDS011;10556;-33.662;151.094;2023-09-19T04:54:20;3.22;;;2.22;;
20792;SDS011;10556;-33.662;151.094;2023-09-19T04:59:22;3.33;;;2.72;;
20792;SDS011;10556;-33.662;151.094;2023-09-19T05:04:25;3.70;;;2.40;;
20792;SDS011;10556;-33.662;151.094;2023-09-19T05:09:26;2.88;;;2.15;;
20792;SDS011;10556;-33.662;151.094;2023-09-19T05:14:27;2.92;;;1.90;;
20792;SDS011;10556;-33.662;151.094;2023-09-19T05:19:30;4.55;;;2.92;;
20792;SDS011;10556;-33.662;151.094;2023-09-19T05:24:31;8.40;;;2.42;;
20792;SDS011;10556;-33.662;151.094;2023-09-19T05:29:33;4.47;;;2.38;;
20792;SDS011;10556;-33.662;151.094;2023-09-19T05:34:36;2.53;;;2.10;;
20792;SDS011;10556;-33.662;151.094;2023-09-19T05:39:37;4.03;;;2.58;;
20792;SDS011;10556;-33.662;151.094;2023-09-19T05:44:38;2.15;;;1.50;;
20792;SDS011;10556;-33.662;151.094;2023-09-19T05:49:41;3.40;;;2.33;;
20792;SDS011;10556;-33.662;151.094;2023-09-19T05:54:42;5.78;;;4.63;;
20792;SDS011;10556;-33.662;151.094;2023-09-19T05:59:44;6.78;;;4.32;;
20792;SDS011;10556;-33.662;151.094;2023-09-19T06:04:47;7.78;;;4.80;;
20792;SDS011;10556;-33.662;151.094;2023-09-19T06:09:48;8.55;;;5.43;;
20792;SDS011;10556;-33.662;151.094;2023-09-19T06:14:49;4.65;;;3.63;;
20792;SDS011;10556;-33.662;151.094;2023-09-19T06:19:52;4.82;;;2.35;;
20792;SDS011;10556;-33.662;151.094;2023-09-19T06:24:54;4.10;;;2.47;;
20792;SDS011;10556;-33.662;151.094;2023-09-19T06:29:55;3.53;;;2.20;;
20792;SDS011;10556;-33.662;151.094;2023-09-19T06:34:58;2.95;;;2.10;;
20792;SDS011;10556;-33.662;151.094;2023-09-19T06:39:59;4.50;;;2.40;;
20792;SDS011;10556;-33.662;151.094;2023-09-19T06:45:00;3.13;;;2.13;;
20792;SDS011;10556;-33.662;151.094;2023-09-19T06:50:04;4.47;;;2.53;;
20792;SDS011;10556;-33.662;151.094;2023-09-19T06:55:05;7.43;;;2.78;;
20792;SDS011;10556;-33.662;151.094;2023-09-19T07:00:07;8.32;;;2.97;;
20792;SDS011;10556;-33.662;151.094;2023-09-19T07:05:10;2.72;;;2.40;;
20792;SDS011;10556;-33.662;151.094;2023-09-19T07:10:11;3.95;;;2.63;;
20792;SDS011;10556;-33.662;151.094;2023-09-19T07:15:13;5.18;;;2.45;;
20792;SDS011;10556;-33.662;151.094;2023-09-19T07:20:16;2.63;;;1.90;;
20792;SDS011;10556;-33.662;151.094;2023-09-19T07:25:17;3.05;;;2.00;;
20792;SDS011;10556;-33.662;151.094;2023-09-19T07:30:18;2.58;;;2.10;;
20792;SDS011;10556;-33.662;151.094;2023-09-19T07:35:21;2.83;;;2.15;;
20792;SDS011;10556;-33.662;151.094;2023-09-19T07:40:23;2.10;;;1.73;;
20792;SDS011;10556;-33.662;151.094;2023-09-19T07:45:24;5.88;;;2.40;;
20792;SDS011;10556;-33.662;151.094;2023-09-19T07:50:27;3.17;;;2.30;;
20792;SDS011;10556;-33.662;151.094;2023-09-19T07:55:28;3.35;;;2.17;;
20792;SDS011;10556;-33.662;151.094;2023-09-19T08:00:30;2.25;;;1.67;;
20792;SDS011;10556;-33.662;151.094;2023-09-19T08:05:33;2.28;;;1.70;;
20792;SDS011;10556;-33.662;151.094;2023-09-19T08:10:34;2.65;;;1.58;;
20792;SDS011;10556;-33.662;151.094;2023-09-19T08:15:35;1.45;;;1.35;;
20792;SDS011;10556;-33.662;151.094;2023-09-19T08:20:38;1.35;;;1.20;;
20792;SDS011;10556;-33.662;151.094;2023-09-19T08:25:40;3.03;;;1.38;;
20792;SDS011;10556;-33.662;151.094;2023-09-19T08:30:41;3.35;;;2.25;;
20792;SDS011;10556;-33.662;151.094;2023-09-19T08:35:44;2.08;;;1.50;;
20792;SDS011;10556;-33.662;151.094;2023-09-19T08:40:45;2.75;;;1.80;;
20792;SDS011;10556;-33.662;151.094;2023-09-19T08:45:47;2.22;;;1.60;;
20792;SDS011;10556;-33.662;151.094;2023-09-19T08:50:51;4.97;;;2.17;;
20792;SDS011;10556;-33.662;151.094;2023-09-19T08:55:53;2.55;;;1.90;;
20792;SDS011;10556;-33.662;151.094;2023-09-19T09:00:55;3.72;;;1.85;;
20792;SDS011;10556;-33.662;151.094;2023-09-19T09:05:58;2.60;;;1.63;;
20792;SDS011;10556;-33.662;151.094;2023-09-19T09:11:00;1.92;;;1.45;;
20792;SDS011;10556;-33.662;151.094;2023-09-19T09:16:01;4.13;;;1.92;;
20792;SDS011;10556;-33.662;151.094;2023-09-19T09:21:04;1.98;;;1.40;;
20792;SDS011;10556;-33.662;151.094;2023-09-19T09:26:05;1.58;;;1.40;;
20792;SDS011;10556;-33.662;151.094;2023-09-19T09:31:07;1.65;;;1.00;;
20792;SDS011;10556;-33.662;151.094;2023-09-19T09:36:35;1.42;;;1.23;;
20792;SDS011;10556;-33.662;151.094;2023-09-19T09:41:37;2.22;;;1.40;;
20792;SDS011;10556;-33.662;151.094;2023-09-19T09:46:38;4.15;;;1.95;;
20792;SDS011;10556;-33.662;151.094;2023-09-19T09:51:45;1.50;;;1.00;;
20792;SDS011;10556;-33.662;151.094;2023-09-19T09:56:53;4.55;;;1.55;;
20792;SDS011;10556;-33.662;151.094;2023-09-19T10:01:54;2.67;;;1.40;;
20792;SDS011;10556;-33.662;151.094;2023-09-19T10:06:57;2.08;;;1.27;;
20792;SDS011;10556;-33.662;151.094;2023-09-19T10:12:02;1.13;;;1.02;;
20792;SDS011;10556;-33.662;151.094;2023-09-19T10:17:04;1.75;;;1.35;;
20792;SDS011;10556;-33.662;151.094;2023-09-19T10:22:08;2.95;;;2.20;;
20792;SDS011;10556;-33.662;151.094;2023-09-19T10:27:09;2.05;;;1.55;;
20792;SDS011;10556;-33.662;151.094;2023-09-19T10:32:10;1.52;;;1.33;;
20792;SDS011;10556;-33.662;151.094;2023-09-19T10:37:15;1.80;;;1.35;;
20792;SDS011;10556;-33.662;151.094;2023-09-19T10:42:19;2.20;;;2.00;;
20792;SDS011;10556;-33.662;151.094;2023-09-19T10:47:20;30.40;;;18.25;;
20792;SDS011;10556;-33.662;151.094;2023-09-19T10:52:24;105.47;;;64.65;;
20792;SDS011;10556;-33.662;151.094;2023-09-19T10:57:26;58.53;;;34.88;;
20792;SDS011;10556;-33.662;151.094;2023-09-19T11:02:28;38.50;;;23.70;;
20792;SDS011;10556;-33.662;151.094;2023-09-19T11:07:31;31.40;;;20.70;;
20792;SDS011;10556;-33.662;151.094;2023-09-19T11:12:50;25.73;;;15.90;;
20792;SDS011;10556;-33.662;151.094;2023-09-19T11:17:52;21.33;;;14.13;;
20792;SDS011;10556;-33.662;151.094;2023-09-19T11:33:29;9.90;;;5.83;;
20792;SDS011;10556;-33.662;151.094;2023-09-19T11:43:50;6.60;;;4.50;;
20792;SDS011;10556;-33.662;151.094;2023-09-19T11:48:54;7.03;;;5.00;;
20792;SDS011;10556;-33.662;151.094;2023-09-19T11:53:55;11.47;;;6.30;;
20792;SDS011;10556;-33.662;151.094;2023-09-19T11:58:57;13.87;;;9.10;;
20792;SDS011;10556;-33.662;151.094;2023-09-19T12:04:00;16.00;;;10.53;;
20792;SDS011;10556;-33.662;151.094;2023-09-19T12:09:02;15.50;;;10.40;;
20792;SDS011;10556;-33.662;151.094;2023-09-19T12:14:03;18.20;;;11.43;;
20792;SDS011;10556;-33.662;151.094;2023-09-19T12:19:22;20.27;;;11.03;;
20792;SDS011;10556;-33.662;151.094;2023-09-19T12:24:23;18.17;;;11.73;;
20792;SDS011;10556;-33.662;151.094;2023-09-19T12:29:25;19.30;;;11.10;;
20792;SDS011;10556;-33.662;151.094;2023-09-19T12:34:28;14.27;;;9.00;;
20792;SDS011;10556;-33.662;151.094;2023-09-19T12:39:30;11.00;;;7.23;;
20792;SDS011;10556;-33.662;151.094;2023-09-19T12:44:31;17.67;;;10.03;;
20792;SDS011;10556;-33.662;151.094;2023-09-19T12:49:34;23.73;;;14.87;;
20792;SDS011;10556;-33.662;151.094;2023-09-19T12:54:39;22.67;;;13.73;;
20792;SDS011;10556;-33.662;151.094;2023-09-19T12:59:40;24.37;;;14.67;;
20792;SDS011;10556;-33.662;151.094;2023-09-19T13:04:43;26.07;;;15.97;;
20792;SDS011;10556;-33.662;151.094;2023-09-19T13:10:02;17.50;;;11.43;;
20792;SDS011;10556;-33.662;151.094;2023-09-19T13:15:13;14.27;;;9.57;;
20792;SDS011;10556;-33.662;151.094;2023-09-19T13:20:23;11.57;;;7.33;;
20792;SDS011;10556;-33.662;151.094;2023-09-19T13:25:25;18.30;;;8.63;;
20792;SDS011;10556;-33.662;151.094;2023-09-19T13:30:27;11.37;;;7.87;;
20792;SDS011;10556;-33.662;151.094;2023-09-19T13:35:30;10.13;;;6.77;;
20792;SDS011;10556;-33.662;151.094;2023-09-19T13:40:31;9.90;;;6.43;;
20792;SDS011;10556;-33.662;151.094;2023-09-19T13:45:33;12.63;;;7.33;;
20792;SDS011;10556;-33.662;151.094;2023-09-19T13:50:36;14.77;;;8.07;;
20792;SDS011;10556;-33.662;151.094;2023-09-19T13:55:37;11.90;;;6.97;;
20792;SDS011;10556;-33.662;151.094;2023-09-19T14:00:38;15.57;;;8.80;;
20792;SDS011;10556;-33.662;151.094;2023-09-19T14:05:41;20.80;;;10.53;;
20792;SDS011;10556;-33.662;151.094;2023-09-19T14:10:43;16.80;;;9.13;;
20792;SDS011;10556;-33.662;151.094;2023-09-19T14:15:44;16.30;;;9.87;;
20792;SDS011;10556;-33.662;151.094;2023-09-19T14:20:47;16.23;;;8.83;;
20792;SDS011;10556;-33.662;151.094;2023-09-19T14:25:48;14.70;;;8.03;;
20792;SDS011;10556;-33.662;151.094;2023-09-19T14:30:49;18.50;;;9.70;;
20792;SDS011;10556;-33.662;151.094;2023-09-19T14:35:52;14.93;;;7.57;;
20792;SDS011;10556;-33.662;151.094;2023-09-19T14:40:59;13.40;;;7.90;;
20792;SDS011;10556;-33.662;151.094;2023-09-19T14:46:02;10.73;;;6.93;;
20792;SDS011;10556;-33.662;151.094;2023-09-19T14:51:06;12.20;;;6.50;;
20792;SDS011;10556;-33.662;151.094;2023-09-19T14:56:07;11.43;;;6.20;;
20792;SDS011;10556;-33.662;151.094;2023-09-19T15:01:09;11.17;;;6.13;;
20792;SDS011;10556;-33.662;151.094;2023-09-19T15:06:12;10.57;;;5.40;;
20792;SDS011;10556;-33.662;151.094;2023-09-19T15:11:13;6.97;;;4.77;;
20792;SDS011;10556;-33.662;151.094;2023-09-19T15:16:15;7.53;;;4.57;;
20792;SDS011;10556;-33.662;151.094;2023-09-19T15:21:18;6.80;;;4.03;;
20792;SDS011;10556;-33.662;151.094;2023-09-19T15:26:19;7.97;;;4.57;;
20792;SDS011;10556;-33.662;151.094;2023-09-19T15:31:20;6.80;;;3.83;;
20792;SDS011;10556;-33.662;151.094;2023-09-19T15:36:23;6.20;;;3.37;;
20792;SDS011;10556;-33.662;151.094;2023-09-19T15:41:24;7.43;;;3.40;;
20792;SDS011;10556;-33.662;151.094;2023-09-19T15:46:26;6.93;;;3.27;;
20792;SDS011;10556;-33.662;151.094;2023-09-19T15:51:29;6.53;;;2.53;;
20792;SDS011;10556;-33.662;151.094;2023-09-19T15:56:30;5.10;;;2.40;;
20792;SDS011;10556;-33.662;151.094;2023-09-19T16:01:33;3.20;;;2.20;;
20792;SDS011;10556;-33.662;151.094;2023-09-19T16:06:37;8.53;;;2.53;;
20792;SDS011;10556;-33.662;151.094;2023-09-19T16:11:38;5.00;;;2.70;;
20792;SDS011;10556;-33.662;151.094;2023-09-19T16:16:39;5.00;;;2.50;;
20792;SDS011;10556;-33.662;151.094;2023-09-19T16:21:42;5.37;;;2.83;;
20792;SDS011;10556;-33.662;151.094;2023-09-19T16:26:44;4.10;;;2.27;;
20792;SDS011;10556;-33.662;151.094;2023-09-19T16:31:45;3.90;;;2.23;;
20792;SDS011;10556;-33.662;151.094;2023-09-19T16:36:48;3.43;;;2.33;;
20792;SDS011;10556;-33.662;151.094;2023-09-19T16:41:49;4.10;;;2.43;;
20792;SDS011;10556;-33.662;151.094;2023-09-19T16:46:50;7.33;;;3.07;;
20792;SDS011;10556;-33.662;151.094;2023-09-19T16:51:53;7.97;;;3.00;;
20792;SDS011;10556;-33.662;151.094;2023-09-19T16:56:55;5.13;;;2.47;;
20792;SDS011;10556;-33.662;151.094;2023-09-19T17:01:56;7.60;;;2.73;;
20792;SDS011;10556;-33.662;151.094;2023-09-19T17:07:01;4.30;;;2.40;;
20792;SDS011;10556;-33.662;151.094;2023-09-19T17:12:02;5.03;;;2.60;;
20792;SDS011;10556;-33.662;151.094;2023-09-19T17:17:03;8.50;;;2.90;;
20792;SDS011;10556;-33.662;151.094;2023-09-19T17:22:06;4.63;;;2.60;;
20792;SDS011;10556;-33.662;151.094;2023-09-19T17:27:08;4.87;;;2.83;;
20792;SDS011;10556;-33.662;151.094;2023-09-19T17:32:09;5.57;;;2.70;;
20792;SDS011;10556;-33.662;151.094;2023-09-19T17:37:12;4.43;;;2.53;;
20792;SDS011;10556;-33.662;151.094;2023-09-19T17:42:13;4.33;;;2.70;;
20792;SDS011;10556;-33.662;151.094;2023-09-19T17:47:14;6.77;;;2.80;;
20792;SDS011;10556;-33.662;151.094;2023-09-19T17:52:17;3.47;;;2.23;;
20792;SDS011;10556;-33.662;151.094;2023-09-19T17:57:19;5.13;;;2.40;;
20792;SDS011;10556;-33.662;151.094;2023-09-19T18:02:20;4.63;;;2.57;;
20792;SDS011;10556;-33.662;151.094;2023-09-19T18:07:23;6.90;;;2.47;;
20792;SDS011;10556;-33.662;151.094;2023-09-19T18:12:24;2.83;;;2.27;;
20792;SDS011;10556;-33.662;151.094;2023-09-19T18:17:26;3.80;;;2.23;;
20792;SDS011;10556;-33.662;151.094;2023-09-19T18:22:29;4.67;;;2.43;;
20792;SDS011;10556;-33.662;151.094;2023-09-19T18:27:30;4.87;;;2.70;;
20792;SDS011;10556;-33.662;151.094;2023-09-19T18:32:31;3.80;;;2.23;;
20792;SDS011;10556;-33.662;151.094;2023-09-19T18:37:34;3.40;;;2.20;;
20792;SDS011;10556;-33.662;151.094;2023-09-19T18:42:36;3.60;;;1.90;;
20792;SDS011;10556;-33.662;151.094;2023-09-19T18:47:37;2.60;;;1.90;;
20792;SDS011;10556;-33.662;151.094;2023-09-19T18:52:40;3.57;;;2.33;;
20792;SDS011;10556;-33.662;151.094;2023-09-19T18:57:41;5.63;;;2.13;;
20792;SDS011;10556;-33.662;151.094;2023-09-19T19:02:43;2.60;;;1.80;;
20792;SDS011;10556;-33.662;151.094;2023-09-19T19:07:46;2.67;;;1.70;;
20792;SDS011;10556;-33.662;151.094;2023-09-19T19:12:47;5.97;;;2.27;;
20792;SDS011;10556;-33.662;151.094;2023-09-19T19:17:48;4.20;;;1.67;;
20792;SDS011;10556;-33.662;151.094;2023-09-19T19:22:51;3.93;;;1.97;;
20792;SDS011;10556;-33.662;151.094;2023-09-19T19:27:53;4.50;;;2.20;;
20792;SDS011;10556;-33.662;151.094;2023-09-19T19:32:55;3.90;;;1.70;;
20792;SDS011;10556;-33.662;151.094;2023-09-19T19:37:58;3.23;;;1.87;;
20792;SDS011;10556;-33.662;151.094;2023-09-19T19:42:59;4.50;;;2.17;;
20792;SDS011;10556;-33.662;151.094;2023-09-19T19:48:00;5.30;;;1.80;;
20792;SDS011;10556;-33.662;151.094;2023-09-19T19:53:03;5.33;;;1.90;;
20792;SDS011;10556;-33.662;151.094;2023-09-19T19:58:05;4.57;;;1.40;;
20792;SDS011;10556;-33.662;151.094;2023-09-19T20:03:06;2.33;;;1.60;;
20792;SDS011;10556;-33.662;151.094;2023-09-19T20:08:09;2.00;;;1.60;;
20792;SDS011;10556;-33.662;151.094;2023-09-19T20:13:10;2.93;;;1.73;;
20792;SDS011;10556;-33.662;151.094;2023-09-19T20:18:12;3.00;;;1.57;;
20792;SDS011;10556;-33.662;151.094;2023-09-19T20:23:15;2.63;;;1.67;;
20792;SDS011;10556;-33.662;151.094;2023-09-19T20:28:16;4.13;;;1.80;;
20792;SDS011;10556;-33.662;151.094;2023-09-19T20:33:17;3.13;;;1.67;;
20792;SDS011;10556;-33.662;151.094;2023-09-19T20:38:20;3.47;;;1.77;;
20792;SDS011;10556;-33.662;151.094;2023-09-19T20:43:21;4.00;;;1.57;;
20792;SDS011;10556;-33.662;151.094;2023-09-19T20:48:23;3.80;;;1.60;;
20792;SDS011;10556;-33.662;151.094;2023-09-19T20:53:26;2.97;;;1.63;;
20792;SDS011;10556;-33.662;151.094;2023-09-19T20:58:27;2.63;;;1.30;;
20792;SDS011;10556;-33.662;151.094;2023-09-19T21:03:29;3.30;;;1.50;;
20792;SDS011;10556;-33.662;151.094;2023-09-19T21:08:32;2.10;;;1.47;;
20792;SDS011;10556;-33.662;151.094;2023-09-19T21:13:33;5.00;;;1.87;;
20792;SDS011;10556;-33.662;151.094;2023-09-19T21:18:35;2.07;;;1.60;;
20792;SDS011;10556;-33.662;151.094;2023-09-19T21:23:38;4.63;;;1.47;;
20792;SDS011;10556;-33.662;151.094;2023-09-19T21:28:39;4.67;;;1.73;;
20792;SDS011;10556;-33.662;151.094;2023-09-19T21:33:41;3.73;;;1.60;;
20792;SDS011;10556;-33.662;151.094;2023-09-19T21:38:44;7.73;;;1.50;;
20792;SDS011;10556;-33.662;151.094;2023-09-19T21:43:46;2.60;;;1.67;;
20792;SDS011;10556;-33.662;151.094;2023-09-19T21:48:47;3.97;;;1.83;;
20792;SDS011;10556;-33.662;151.094;2023-09-19T21:53:50;3.67;;;1.90;;
20792;SDS011;10556;-33.662;151.094;2023-09-19T21:58:52;5.47;;;1.87;;
20792;SDS011;10556;-33.662;151.094;2023-09-19T22:03:53;3.07;;;1.97;;
20792;SDS011;10556;-33.662;151.094;2023-09-19T22:08:56;4.47;;;1.73;;
20792;SDS011;10556;-33.662;151.094;2023-09-19T22:13:57;3.10;;;1.90;;
20792;SDS011;10556;-33.662;151.094;2023-09-19T22:18:58;6.57;;;1.50;;
20792;SDS011;10556;-33.662;151.094;2023-09-19T22:24:01;4.27;;;1.63;;
20792;SDS011;10556;-33.662;151.094;2023-09-19T22:29:03;3.37;;;1.20;;
20792;SDS011;10556;-33.662;151.094;2023-09-19T22:34:05;3.60;;;1.30;;
20792;SDS011;10556;-33.662;151.094;2023-09-19T22:39:08;10.33;;;2.23;;
20792;SDS011;10556;-33.662;151.094;2023-09-19T22:44:09;2.33;;;1.47;;
20792;SDS011;10556;-33.662;151.094;2023-09-19T22:49:10;6.70;;;1.50;;
20792;SDS011;10556;-33.662;151.094;2023-09-19T22:54:13;1.60;;;0.90;;
20792;SDS011;10556;-33.662;151.094;2023-09-19T22:59:14;2.77;;;1.30;;
20792;SDS011;10556;-33.662;151.094;2023-09-19T23:04:16;2.50;;;1.13;;
20792;SDS011;10556;-33.662;151.094;2023-09-19T23:09:19;1.70;;;0.97;;
20792;SDS011;10556;-33.662;151.094;2023-09-19T23:14:20;3.50;;;1.30;;
20792;SDS011;10556;-33.662;151.094;2023-09-19T23:19:22;4.90;;;1.30;;
20792;SDS011;10556;-33.662;151.094;2023-09-19T23:24:25;15.47;;;1.40;;
20792;SDS011;10556;-33.662;151.094;2023-09-19T23:29:26;4.33;;;1.23;;
20792;SDS011;10556;-33.662;151.094;2023-09-19T23:34:27;1.67;;;1.15;;
20792;SDS011;10556;-33.662;151.094;2023-09-19T23:39:30;2.80;;;0.95;;
20792;SDS011;10556;-33.662;151.094;2023-09-19T23:44:31;2.35;;;0.95;;
20792;SDS011;10556;-33.662;151.094;2023-09-19T23:49:33;5.88;;;1.38;;
20792;SDS011;10556;-33.662;151.094;2023-09-19T23:54:36;3.05;;;1.30;;
20792;SDS011;10556;-33.662;151.094;2023-09-19T23:59:37;2.15;;;1.02;;
